Analomink, Pennsylvania
Current Conditions -  °F | °C
As of 11:53 PM on Friday 19 Dec 2014 (Local Time) from KMPO Reporting Station
Overcast Overcast  
Wind Chill: 11°   Ceiling: 600
Heat Index: 23°   Visibility: 10mi
Dew Point: 20°   Wind: 14mph
Humidity: 88%   Direction: 330°NNW
Pressure: 30.09"   Gusts: 22mph
Location:  41.05°N, 75.22°W
Report Text: KMPO 200453Z AUTO 33012G19KT 10SM OVC006 M05/M07 A3009 RMK AO2 SLP218 T10501067 410171050
Loading
Personal Weather Stations






























Interactive Weather Map New forecast layout! Learn more

10-Day Weather Forecast

Advertisements
Track Severe Weather on mobile